Time;durP1;ratioP1;P1;durP2;ratioP2;P2;SDS_P1;SDS_P2;PMS_P1;PMS_P2;Temp;Humidity;BMP_temperature;BMP_pressure;BME280_temperature;BME280_humidity;BME280_pressure;Samples;Min_cycle;Max_cycle;Signal;HPM_P1;HPM_P2
2021/10/30 00:02:13;;;;;;;7.80;6.30;;;;;10.50;99997.00;;;;9841833;30;20208;-78
2021/10/30 00:07:15;;;;;;;8.50;6.73;;;;;10.60;99978.00;;;;9790066;30;20217;-78
2021/10/30 00:12:17;;;;;;;9.77;7.10;;;;;10.70;99980.00;;;;9846008;30;20729;-78
2021/10/30 00:17:19;;;;;;;8.97;7.30;;;;;10.70;99976.00;;;;9855679;30;20223;-78
2021/10/30 00:22:21;;;;;;;8.80;7.00;;;;;10.70;99962.00;;;;9828058;30;20227;-78
2021/10/30 00:27:23;;;;;;;11.80;8.47;;;;;10.80;99959.00;;;;9846461;30;20286;-78
2021/10/30 00:32:25;;;;;;;9.03;7.43;;;;;10.80;99963.00;;;;9863094;30;20212;-78
2021/10/30 00:37:27;;;;;;;12.23;7.47;;;;;10.90;99972.00;;;;9829515;30;20258;-78
2021/10/30 00:42:28;;;;;;;16.60;8.10;;;;;10.90;99965.00;;;;9809265;30;20597;-79
2021/10/30 00:47:30;;;;;;;11.30;9.13;;;;;11.00;99955.00;;;;9823106;30;20262;-78
2021/10/30 00:52:33;;;;;;;13.67;9.10;;;;;11.00;99945.00;;;;9862890;30;20196;-79
2021/10/30 00:57:40;;;;;;;17.33;10.73;;;;;11.10;99959.00;;;;9842825;30;20200;-78
2021/10/30 01:02:41;;;;;;;14.80;11.33;;;;;11.40;99950.00;;;;9829637;30;20205;-78
2021/10/30 01:07:44;;;;;;;18.27;12.30;;;;;11.50;99940.00;;;;9859762;30;20205;-78
2021/10/30 01:12:46;;;;;;;16.33;11.17;;;;;11.50;99933.00;;;;9855377;30;20268;-78
2021/10/30 01:17:48;;;;;;;15.77;10.33;;;;;11.50;99920.00;;;;9838734;30;20200;-78
2021/10/30 01:22:50;;;;;;;12.33;10.10;;;;;11.50;99914.00;;;;9860982;30;20250;-79
2021/10/30 01:27:53;;;;;;;11.40;9.50;;;;;11.50;99901.00;;;;9845002;30;20244;-78
2021/10/30 01:33:01;;;;;;;13.90;10.73;;;;;11.60;99895.00;;;;9841810;30;20236;-78
2021/10/30 01:38:03;;;;;;;12.03;9.17;;;;;11.50;99889.00;;;;9836328;30;20248;-78
2021/10/30 01:43:07;;;;;;;13.30;8.83;;;;;11.50;99883.00;;;;9845117;30;20216;-79
2021/10/30 01:48:10;;;;;;;10.87;9.23;;;;;11.40;99858.00;;;;9842510;30;20285;-78
2021/10/30 01:53:12;;;;;;;12.17;9.43;;;;;11.40;99856.00;;;;9844946;30;20204;-79
2021/10/30 01:58:15;;;;;;;13.87;10.00;;;;;11.40;99849.00;;;;9843059;30;20192;-78
2021/10/30 02:03:18;;;;;;;11.27;9.63;;;;;11.40;99836.00;;;;9842066;30;20208;-78
2021/10/30 02:08:20;;;;;;;13.40;9.03;;;;;11.40;99833.00;;;;9857690;30;20220;-78
2021/10/30 02:13:23;;;;;;;11.90;9.93;;;;;11.40;99826.00;;;;9835786;30;20258;-78
2021/10/30 02:18:26;;;;;;;11.50;9.13;;;;;11.40;99822.00;;;;9857896;30;20200;-78
2021/10/30 02:23:28;;;;;;;12.70;8.67;;;;;11.50;99799.00;;;;9857896;30;20209;-77
2021/10/30 02:28:30;;;;;;;11.37;8.73;;;;;11.60;99797.00;;;;9842187;29;20769;-78
2021/10/30 02:33:32;;;;;;;9.97;8.60;;;;;11.60;99781.00;;;;9833370;30;20204;-78
2021/10/30 02:38:34;;;;;;;10.23;8.33;;;;;11.50;99785.00;;;;9841323;30;20200;-78
2021/10/30 02:43:36;;;;;;;14.27;8.33;;;;;11.50;99777.00;;;;9856918;30;20209;-78
2021/10/30 02:48:39;;;;;;;11.87;8.53;;;;;11.50;99757.00;;;;9826996;30;20279;-78
2021/10/30 02:53:41;;;;;;;11.73;8.83;;;;;11.60;99745.00;;;;9827628;30;20735;-78
2021/10/30 02:58:43;;;;;;;14.10;8.43;;;;;11.70;99738.00;;;;9846137;30;20207;-78
2021/10/30 03:03:45;;;;;;;12.70;8.97;;;;;11.80;99729.00;;;;9849152;30;20214;-78
2021/10/30 03:08:49;;;;;;;12.13;7.67;;;;;11.80;99728.00;;;;9852324;30;20232;-78
2021/10/30 03:13:51;;;;;;;10.23;8.30;;;;;11.80;99717.00;;;;9841383;30;20212;-79
2021/10/30 03:18:53;;;;;;;11.40;7.33;;;;;11.90;99714.00;;;;9818309;30;20666;-77
2021/10/30 03:23:55;;;;;;;11.87;7.33;;;;;11.90;99708.00;;;;9818290;30;20209;-78
2021/10/30 03:28:58;;;;;;;12.97;7.87;;;;;11.90;99697.00;;;;9840622;29;20224;-78
2021/10/30 03:34:00;;;;;;;10.07;7.63;;;;;12.00;99694.00;;;;9854890;30;20250;-78
2021/10/30 03:39:02;;;;;;;10.60;7.30;;;;;12.00;99696.00;;;;9833923;30;20201;-77
2021/10/30 03:44:04;;;;;;;8.70;6.80;;;;;12.10;99699.00;;;;9826077;30;20205;-78
2021/10/30 03:49:06;;;;;;;8.63;6.77;;;;;12.10;99697.00;;;;9823923;30;20566;-78
2021/10/30 03:54:08;;;;;;;7.90;5.80;;;;;12.20;99698.00;;;;9821551;30;20212;-79
2021/10/30 03:59:10;;;;;;;8.77;5.77;;;;;12.20;99688.00;;;;9827749;30;20204;-79
2021/10/30 04:04:12;;;;;;;8.47;5.83;;;;;12.30;99684.00;;;;9831189;30;20601;-79
2021/10/30 04:09:14;;;;;;;7.73;5.20;;;;;12.30;99663.00;;;;9832180;30;20205;-79
2021/10/30 04:14:16;;;;;;;8.00;5.40;;;;;12.20;99660.00;;;;9840133;30;20205;-79
2021/10/30 04:19:18;;;;;;;7.20;5.23;;;;;12.20;99657.00;;;;9839759;30;20201;-78
2021/10/30 04:24:20;;;;;;;7.60;5.80;;;;;12.20;99653.00;;;;9810594;30;20208;-78
2021/10/30 04:29:21;;;;;;;7.53;5.27;;;;;12.20;99645.00;;;;9854019;30;20643;-79
2021/10/30 04:34:34;;;;;;;5.93;5.27;;;;;12.20;99638.00;;;;9825334;30;20288;-79
2021/10/30 04:39:36;;;;;;;8.93;5.40;;;;;12.20;99630.00;;;;9840084;30;20730;-78
2021/10/30 04:44:38;;;;;;;8.97;5.37;;;;;12.20;99607.00;;;;9804291;30;20208;-79
2021/10/30 04:49:42;;;;;;;8.17;5.97;;;;;12.20;99597.00;;;;9839326;30;20235;-78
2021/10/30 04:54:43;;;;;;;7.67;5.80;;;;;12.20;99593.00;;;;9853665;30;20200;-78
2021/10/30 04:59:45;;;;;;;13.73;7.13;;;;;12.20;99596.00;;;;9856195;30;20253;-78
2021/10/30 05:06:57;;;;;;;9.13;6.10;;;;;12.20;99595.00;;;;10572182;27;20977;-78
2021/10/30 05:11:59;;;;;;;7.20;5.60;;;;;12.20;99584.00;;;;10529066;28;20196;-79
2021/10/30 05:17:01;;;;;;;6.93;5.47;;;;;12.20;99581.00;;;;10537434;28;20207;-79
2021/10/30 05:22:03;;;;;;;8.57;5.63;;;;;12.20;99582.00;;;;10494119;28;20603;-78
2021/10/30 05:27:06;;;;;;;7.17;5.40;;;;;12.10;99569.00;;;;10501269;28;20180;-79
2021/10/30 05:32:09;;;;;;;7.73;5.33;;;;;12.10;99553.00;;;;10544178;28;20212;-79
2021/10/30 05:37:32;;;;;;;8.90;5.33;;;;;12.10;99556.00;;;;10527539;28;20192;-78
2021/10/30 05:42:40;;;;;;;8.93;5.83;;;;;12.10;99582.00;;;;10517851;28;20205;-78
2021/10/30 05:47:42;;;;;;;9.50;5.87;;;;;12.10;99577.00;;;;10543335;28;20220;-78
2021/10/30 05:52:44;;;;;;;9.87;5.80;;;;;12.10;99562.00;;;;10526215;28;20277;-80
2021/10/30 05:57:46;;;;;;;7.67;5.73;;;;;12.10;99564.00;;;;10531857;28;20242;-79
2021/10/30 06:02:48;;;;;;;7.33;5.30;;;;;12.10;99547.00;;;;10545744;28;20262;-79
2021/10/30 06:07:50;;;;;;;7.87;5.33;;;;;12.10;99539.00;;;;10534903;28;20279;-79
2021/10/30 06:12:52;;;;;;;6.37;5.47;;;;;12.10;99531.00;;;;10544744;28;20297;-78
2021/10/30 06:17:54;;;;;;;6.67;5.20;;;;;12.20;99530.00;;;;10560593;28;20341;-78
2021/10/30 06:22:56;;;;;;;6.03;5.13;;;;;12.20;99513.00;;;;10534138;28;20257;-78
2021/10/30 06:27:58;;;;;;;6.27;5.63;;;;;12.20;99518.00;;;;10534488;28;20196;-78
2021/10/30 06:33:01;;;;;;;9.00;5.50;;;;;12.20;99517.00;;;;10502194;28;20622;-78
2021/10/30 06:38:03;;;;;;;5.37;4.87;;;;;12.30;99513.00;;;;10485867;28;20646;-79
2021/10/30 06:43:05;;;;;;;7.73;4.57;;;;;12.30;99506.00;;;;10501712;28;20217;-79
2021/10/30 06:48:07;;;;;;;7.63;5.50;;;;;12.30;99505.00;;;;10484802;28;20225;-79
2021/10/30 06:53:09;;;;;;;7.07;4.70;;;;;12.30;99497.00;;;;10484995;28;20667;-79
2021/10/30 06:58:11;;;;;;;5.97;4.70;;;;;12.30;99501.00;;;;10500870;28;20263;-79
2021/10/30 07:03:13;;;;;;;4.97;4.00;;;;;12.40;99487.00;;;;10484179;28;20245;-80
2021/10/30 07:08:16;;;;;;;7.47;4.23;;;;;12.40;99484.00;;;;10484058;28;20220;-79
2021/10/30 07:13:18;;;;;;;9.37;4.47;;;;;12.40;99496.00;;;;10500553;28;20189;-79
2021/10/30 07:18:19;;;;;;;8.07;4.33;;;;;12.50;99486.00;;;;10467204;28;20198;-79
2021/10/30 07:23:21;;;;;;;6.37;4.13;;;;;12.50;99494.00;;;;10466781;28;20267;-79
2021/10/30 07:28:23;;;;;;;5.53;3.93;;;;;12.60;99481.00;;;;10519338;28;20189;-80
2021/10/30 07:33:25;;;;;;;4.10;3.80;;;;;12.60;99489.00;;;;10505303;28;20193;-80
2021/10/30 07:38:27;;;;;;;5.53;3.60;;;;;12.70;99487.00;;;;10491349;28;20196;-79
2021/10/30 07:43:29;;;;;;;4.30;3.87;;;;;12.70;99488.00;;;;10507579;28;20212;-79
2021/10/30 07:48:30;;;;;;;4.37;3.57;;;;;12.80;99497.00;;;;10507554;28;20209;-79
2021/10/30 07:53:32;;;;;;;4.03;3.63;;;;;12.80;99492.00;;;;10507619;28;20246;-79
2021/10/30 07:58:34;;;;;;;5.23;4.23;;;;;12.70;99493.00;;;;10507056;28;20577;-80
2021/10/30 08:03:36;;;;;;;5.70;4.50;;;;;12.80;99488.00;;;;10473562;28;20230;-80
2021/10/30 08:08:38;;;;;;;6.07;3.93;;;;;12.80;99489.00;;;;10504779;28;20188;-80
2021/10/30 08:13:40;;;;;;;4.83;3.40;;;;;12.80;99492.00;;;;10514964;28;20700;-80
2021/10/30 08:18:42;;;;;;;5.23;3.43;;;;;12.90;99490.00;;;;10514780;28;20704;-81
2021/10/30 08:23:44;;;;;;;3.97;2.93;;;;;12.90;99494.00;;;;10531441;28;20231;-80
2021/10/30 08:28:46;;;;;;;3.60;3.10;;;;;12.90;99492.00;;;;10514360;28;20575;-80
2021/10/30 08:33:48;;;;;;;5.30;3.07;;;;;13.00;99491.00;;;;10531091;28;20715;-79
2021/10/30 08:38:50;;;;;;;4.10;3.33;;;;;13.00;99481.00;;;;10514078;28;20249;-79
2021/10/30 08:43:52;;;;;;;4.53;2.90;;;;;13.00;99490.00;;;;10547056;28;20295;-79
2021/10/30 08:48:55;;;;;;;4.53;2.70;;;;;13.00;99488.00;;;;10521668;28;20220;-79
2021/10/30 08:53:56;;;;;;;3.60;3.30;;;;;13.00;99483.00;;;;10488957;28;20193;-80
2021/10/30 08:59:00;;;;;;;5.33;3.13;;;;;13.00;99492.00;;;;10497444;28;20561;-80
2021/10/30 09:04:02;;;;;;;3.43;3.07;;;;;13.10;99488.00;;;;10529675;28;20203;-80
2021/10/30 09:09:16;;;;;;;3.90;3.40;;;;;13.10;99482.00;;;;10546443;28;20192;-80
2021/10/30 09:14:23;;;;;;;5.20;3.40;;;;;13.10;99482.00;;;;10530022;28;20233;-80
2021/10/30 09:19:29;;;;;;;4.97;3.07;;;;;13.20;99466.00;;;;10513755;28;20188;-80
2021/10/30 09:24:50;;;;;;;3.60;3.20;;;;;13.40;99465.00;;;;10529938;28;20273;-80
2021/10/30 09:29:54;;;;;;;4.93;3.80;;;;;13.50;99460.00;;;;10496333;28;20579;-80
2021/10/30 09:34:56;;;;;;;5.97;3.67;;;;;13.60;99468.00;;;;10511535;28;20713;-80
2021/10/30 09:40:24;;;;;;;4.70;3.60;;;;;13.70;99468.00;;;;10512917;28;20227;-79
2021/10/30 09:45:27;;;;;;;4.07;3.40;;;;;13.90;99454.00;;;;10562944;28;20204;-80
2021/10/30 09:50:31;;;;;;;3.43;2.90;;;;;14.00;99449.00;;;;10532411;28;20185;-80
2021/10/30 09:55:33;;;;;;;4.13;2.90;;;;;14.00;99468.00;;;;10520957;28;20238;-80
2021/10/30 10:00:36;;;;;;;5.00;3.27;;;;;14.40;99449.00;;;;10570715;28;20196;-79
2021/10/30 10:05:38;;;;;;;4.10;3.20;;;;;14.70;99453.00;;;;10537462;28;20781;-79
2021/10/30 10:10:40;;;;;;;5.07;3.10;;;;;14.90;99467.00;;;;10520556;28;20651;-79
2021/10/30 10:15:42;;;;;;;4.70;2.90;;;;;15.20;99482.00;;;;10554257;28;20184;-79
2021/10/30 10:20:46;;;;;;;2.80;2.60;;;;;15.60;99495.00;;;;10536124;28;20215;-78
2021/10/30 10:25:55;;;;;;;3.53;2.23;;;;;15.80;99497.00;;;;10519481;28;20204;-78
2021/10/30 10:31:00;;;;;;;3.30;2.30;;;;;15.70;99486.00;;;;10552629;28;20177;-78
2021/10/30 10:36:21;;;;;;;2.50;2.30;;;;;15.90;99473.00;;;;10518884;28;20192;-79
2021/10/30 10:41:44;;;;;;;2.63;2.03;;;;;16.00;99491.00;;;;10534950;28;20686;-78
2021/10/30 10:46:57;;;;;;;2.00;1.83;;;;;15.50;99470.00;;;;10534579;28;20683;-78
2021/10/30 10:52:15;;;;;;;2.60;1.97;;;;;15.30;99471.00;;;;10551184;28;20554;-79
2021/10/30 10:57:47;;;;;;;2.27;1.70;;;;;15.40;99451.00;;;;10534637;28;20183;-78
2021/10/30 11:02:49;;;;;;;2.53;1.80;;;;;15.70;99453.00;;;;10508451;28;20292;-78
2021/10/30 11:07:51;;;;;;;1.73;1.47;;;;;15.80;99454.00;;;;10509111;28;20246;-78
2021/10/30 11:13:01;;;;;;;2.33;1.70;;;;;15.80;99449.00;;;;10525534;28;20189;-78
2021/10/30 11:18:09;;;;;;;1.70;1.60;;;;;15.70;99440.00;;;;10525102;28;20617;-78
2021/10/30 11:23:17;;;;;;;2.00;1.40;;;;;16.00;99435.00;;;;10508406;28;20220;-79
2021/10/30 11:28:23;;;;;;;1.43;1.33;;;;;15.70;99442.00;;;;10511886;28;20651;-79
2021/10/30 11:33:26;;;;;;;1.35;1.25;;;;;15.50;99432.00;;;;10533001;28;20712;-78
2021/10/30 11:38:37;;;;;;;3.10;1.30;;;;;15.30;99422.00;;;;10566353;28;20192;-79
2021/10/30 11:43:39;;;;;;;1.50;1.40;;;;;15.50;99417.00;;;;10532542;28;20212;-79
2021/10/30 11:48:45;;;;;;;1.43;1.33;;;;;15.30;99411.00;;;;10515837;28;20223;-78
2021/10/30 11:53:49;;;;;;;1.37;1.27;;;;;15.60;99409.00;;;;10565828;28;20185;-79
2021/10/30 11:58:59;;;;;;;2.77;1.47;;;;;15.60;99418.00;;;;10548664;28;20196;-78
2021/10/30 12:04:14;;;;;;;2.40;1.40;;;;;15.50;99407.00;;;;10565060;28;20630;-78
2021/10/30 12:09:40;;;;;;;1.90;1.63;;;;;15.50;99407.00;;;;10534045;28;20223;-78
2021/10/30 12:14:45;;;;;;;1.38;1.25;;;;;15.80;99400.00;;;;10530767;28;20180;-78
2021/10/30 12:19:54;;;;;;;1.30;1.20;;;;;16.10;99407.00;;;;10514547;28;20719;-78
2021/10/30 12:25:14;;;;;;;1.35;1.23;;;;;16.40;99411.00;;;;10531296;28;20624;-78
2021/10/30 12:30:31;;;;;;;1.55;1.40;;;;;17.00;99416.00;;;;10530495;28;20260;-79
2021/10/30 12:35:33;;;;;;;1.80;1.40;;;;;16.80;99413.00;;;;10530624;28;20180;-79
2021/10/30 12:40:35;;;;;;;2.03;1.10;;;;;16.60;99411.00;;;;10530894;28;20659;-78
2021/10/30 12:45:46;;;;;;;2.88;1.65;;;;;16.80;99398.00;;;;10547302;28;20220;-79
2021/10/30 12:50:57;;;;;;;1.77;1.48;;;;;17.00;99399.00;;;;10513833;28;20557;-79
2021/10/30 12:56:08;;;;;;;1.35;1.25;;;;;17.00;99403.00;;;;10513887;28;20202;-78
2021/10/30 13:01:21;;;;;;;1.92;1.50;;;;;16.80;99400.00;;;;10536949;28;20201;-78
2021/10/30 13:06:26;;;;;;;1.20;1.10;;;;;16.50;99389.00;;;;10499691;28;20216;-78
2021/10/30 13:11:27;;;;;;;3.72;1.52;;;;;16.40;99384.00;;;;10563474;28;20183;-78
2021/10/30 13:16:29;;;;;;;2.13;1.38;;;;;16.20;99382.00;;;;10563045;28;20180;-78
2021/10/30 13:21:32;;;;;;;2.67;1.30;;;;;16.50;99382.00;;;;10562870;28;20188;-78
2021/10/30 13:26:34;;;;;;;1.63;1.45;;;;;16.30;99388.00;;;;10534073;28;20208;-78
2021/10/30 13:31:36;;;;;;;1.40;1.30;;;;;16.00;99388.00;;;;10537940;28;20200;-78
2021/10/30 13:36:38;;;;;;;1.40;0.95;;;;;15.70;99384.00;;;;10521042;28;20192;-78
2021/10/30 13:41:40;;;;;;;2.40;1.13;;;;;15.50;99372.00;;;;10520669;28;20208;-78
2021/10/30 13:46:43;;;;;;;1.20;1.10;;;;;15.40;99388.00;;;;10553566;28;20216;-78
2021/10/30 13:51:45;;;;;;;3.80;2.03;;;;;15.50;99385.00;;;;10537090;28;20192;-78
2021/10/30 13:56:47;;;;;;;1.20;1.10;;;;;15.70;99382.00;;;;10495151;28;20231;-78
2021/10/30 14:02:12;;;;;;;1.15;1.05;;;;;15.70;99383.00;;;;10546396;28;20188;-78
2021/10/30 14:07:14;;;;;;;1.30;1.10;;;;;15.70;99381.00;;;;10552667;28;20239;-78
2021/10/30 14:12:16;;;;;;;1.08;0.98;;;;;15.60;99385.00;;;;10519683;28;20227;-78
2021/10/30 14:17:18;;;;;;;0.80;0.80;;;;;15.70;99389.00;;;;10535090;28;20220;-78
2021/10/30 14:22:20;;;;;;;1.23;1.10;;;;;15.50;99389.00;;;;10552528;28;20223;-78
2021/10/30 14:27:22;;;;;;;1.35;1.00;;;;;15.40;99386.00;;;;10552268;28;20732;-78
2021/10/30 14:32:26;;;;;;;1.27;0.98;;;;;15.30;99401.00;;;;10568797;28;20193;-78
2021/10/30 14:37:27;;;;;;;1.77;0.98;;;;;15.30;99402.00;;;;10518030;28;20237;-78
2021/10/30 14:42:30;;;;;;;2.90;0.85;;;;;15.10;99401.00;;;;10517970;28;20197;-78
2021/10/30 14:47:32;;;;;;;0.60;0.60;;;;;14.90;99408.00;;;;10530180;28;20221;-78
2021/10/30 14:52:35;;;;;;;1.20;0.80;;;;;14.90;99417.00;;;;10526057;28;20597;-78
2021/10/30 14:57:37;;;;;;;2.63;1.00;;;;;14.90;99426.00;;;;10509215;28;20192;-78
2021/10/30 15:02:39;;;;;;;0.90;0.90;;;;;14.90;99423.00;;;;10508676;28;20204;-79
2021/10/30 15:07:41;;;;;;;0.80;0.80;;;;;15.00;99424.00;;;;10547915;28;20690;-78
2021/10/30 15:12:44;;;;;;;0.93;0.90;;;;;15.10;99430.00;;;;10550380;28;20651;-78
2021/10/30 15:17:46;;;;;;;2.07;1.10;;;;;15.00;99429.00;;;;10517043;28;20192;-78
2021/10/30 15:22:48;;;;;;;3.40;1.00;;;;;14.70;99442.00;;;;10549912;28;20593;-78
2021/10/30 15:27:50;;;;;;;3.70;1.20;;;;;14.40;99445.00;;;;10549633;28;20248;-78
2021/10/30 15:32:52;;;;;;;1.03;0.93;;;;;14.20;99442.00;;;;10549515;28;20204;-79
2021/10/30 15:37:54;;;;;;;2.47;1.23;;;;;14.00;99445.00;;;;10516838;28;20647;-79
2021/10/30 15:42:58;;;;;;;3.73;1.50;;;;;13.80;99460.00;;;;10532809;28;20196;-80
2021/10/30 15:48:00;;;;;;;1.73;1.43;;;;;13.70;99481.00;;;;10490482;28;20225;-80
2021/10/30 15:53:03;;;;;;;3.93;1.50;;;;;13.60;99480.00;;;;10490584;28;20724;-80
2021/10/30 15:58:05;;;;;;;2.47;1.63;;;;;13.60;99486.00;;;;10529536;28;20219;-80
2021/10/30 16:03:07;;;;;;;2.83;2.00;;;;;13.50;99507.00;;;;10549072;28;20207;-80
2021/10/30 16:08:09;;;;;;;6.33;1.50;;;;;13.50;99523.00;;;;10565362;28;20212;-79
2021/10/30 16:13:12;;;;;;;4.50;1.77;;;;;13.40;99537.00;;;;10565027;28;20192;-78
2021/10/30 16:18:15;;;;;;;4.17;1.80;;;;;13.20;99553.00;;;;10548166;28;20196;-78
2021/10/30 16:23:16;;;;;;;3.37;1.83;;;;;13.00;99546.00;;;;10548369;28;20308;-78
2021/10/30 16:28:18;;;;;;;6.80;2.73;;;;;12.90;99566.00;;;;10564174;28;20233;-78
2021/10/30 16:33:21;;;;;;;4.67;3.43;;;;;12.80;99575.00;;;;10513984;28;20192;-78
2021/10/30 16:38:23;;;;;;;6.07;3.37;;;;;12.70;99588.00;;;;10547396;28;20195;-78
2021/10/30 16:43:25;;;;;;;5.27;3.10;;;;;12.70;99594.00;;;;10513846;28;20237;-79
2021/10/30 16:48:26;;;;;;;8.47;4.80;;;;;12.60;99598.00;;;;10513306;28;20713;-78
2021/10/30 16:53:29;;;;;;;4.40;3.13;;;;;12.60;99614.00;;;;10504838;28;20227;-78
2021/10/30 16:58:31;;;;;;;4.27;2.97;;;;;12.50;99620.00;;;;10505409;28;20242;-77
2021/10/30 17:03:33;;;;;;;5.03;3.53;;;;;12.50;99634.00;;;;10551133;28;20261;-77
2021/10/30 17:08:37;;;;;;;6.80;4.23;;;;;12.50;99638.00;;;;10563036;28;20258;-77
2021/10/30 17:13:40;;;;;;;7.67;4.93;;;;;12.40;99637.00;;;;10512682;28;20220;-77
2021/10/30 17:18:42;;;;;;;6.77;3.67;;;;;12.40;99659.00;;;;10528955;28;20237;-77
2021/10/30 17:23:46;;;;;;;5.00;4.10;;;;;12.40;99654.00;;;;10545656;28;20267;-77
2021/10/30 17:28:48;;;;;;;7.67;4.30;;;;;12.40;99646.00;;;;10521217;28;20249;-77
2021/10/30 17:33:52;;;;;;;5.50;4.13;;;;;12.30;99654.00;;;;10487336;28;20189;-77
2021/10/30 17:38:54;;;;;;;7.20;4.30;;;;;12.30;99650.00;;;;10520212;28;20193;-77
2021/10/30 17:44:02;;;;;;;7.17;5.97;;;;;12.30;99690.00;;;;10503404;28;20189;-77
2021/10/30 17:49:04;;;;;;;8.70;5.83;;;;;12.30;99708.00;;;;10503139;28;20213;-77
2021/10/30 17:54:07;;;;;;;4.83;4.33;;;;;12.30;99726.00;;;;10487020;28;20242;-77
2021/10/30 17:59:09;;;;;;;10.27;8.30;;;;;12.40;99734.00;;;;10530849;28;20192;-77
2021/10/30 18:04:12;;;;;;;16.03;12.30;;;;;12.40;99739.00;;;;10526276;28;20213;-78
2021/10/30 18:09:13;;;;;;;6.53;5.60;;;;;12.20;99746.00;;;;10520111;28;20189;-77
2021/10/30 18:14:15;;;;;;;8.93;5.73;;;;;12.10;99749.00;;;;10542895;28;20185;-77
2021/10/30 18:19:17;;;;;;;7.23;5.00;;;;;12.10;99750.00;;;;10510318;28;20228;-77
2021/10/30 18:24:20;;;;;;;8.80;5.10;;;;;12.00;99749.00;;;;10526526;28;20231;-77
2021/10/30 18:29:23;;;;;;;7.90;5.20;;;;;12.00;99762.00;;;;10526533;28;20648;-77
2021/10/30 18:34:25;;;;;;;15.13;9.63;;;;;12.00;99777.00;;;;10526469;28;20180;-77
2021/10/30 18:39:27;;;;;;;8.20;5.83;;;;;11.90;99788.00;;;;10542965;28;20193;-77
2021/10/30 18:44:29;;;;;;;10.20;7.07;;;;;12.00;99800.00;;;;10526338;28;20201;-77
2021/10/30 18:49:32;;;;;;;11.87;7.17;;;;;12.00;99806.00;;;;10542718;28;20934;-77
2021/10/30 18:54:34;;;;;;;13.17;8.93;;;;;12.00;99810.00;;;;10509497;28;20564;-77
2021/10/30 18:59:36;;;;;;;11.47;8.13;;;;;11.90;99820.00;;;;10511980;28;20197;-77
2021/10/30 19:04:38;;;;;;;14.97;8.80;;;;;11.80;99831.00;;;;10506043;28;20247;-77
2021/10/30 19:09:41;;;;;;;22.47;11.37;;;;;11.80;99832.00;;;;10508724;28;20188;-77
2021/10/30 19:14:43;;;;;;;18.67;8.40;;;;;11.70;99844.00;;;;10492058;28;20238;-77
2021/10/30 19:19:45;;;;;;;16.57;8.50;;;;;11.70;99843.00;;;;10508444;28;20245;-77
2021/10/30 19:24:47;;;;;;;14.20;9.17;;;;;11.70;99854.00;;;;10543054;28;20231;-78
2021/10/30 19:29:49;;;;;;;14.10;8.93;;;;;11.60;99858.00;;;;10507942;28;20663;-77
2021/10/30 19:34:52;;;;;;;18.30;8.97;;;;;11.60;99869.00;;;;10550404;28;20192;-77
2021/10/30 19:39:53;;;;;;;14.80;8.40;;;;;11.60;99890.00;;;;10533252;28;20189;-78
2021/10/30 19:44:56;;;;;;;14.77;8.73;;;;;11.60;99899.00;;;;10532838;28;20219;-77
2021/10/30 19:49:58;;;;;;;13.50;8.10;;;;;11.60;99898.00;;;;10532468;28;20253;-77
2021/10/30 19:55:01;;;;;;;14.20;7.40;;;;;11.60;99895.00;;;;10549009;28;20192;-78
2021/10/30 20:00:06;;;;;;;17.03;8.53;;;;;11.60;99897.00;;;;10548582;28;20196;-77
2021/10/30 20:05:13;;;;;;;9.57;6.43;;;;;11.60;99910.00;;;;10565880;28;20220;-77
2021/10/30 20:10:14;;;;;;;10.70;5.27;;;;;11.50;99908.00;;;;10531501;28;20185;-78
2021/10/30 20:15:17;;;;;;;11.70;5.73;;;;;11.50;99925.00;;;;10531229;28;20801;-78
2021/10/30 20:20:21;;;;;;;9.37;5.97;;;;;11.40;99944.00;;;;10514819;28;20199;-78
2021/10/30 20:25:24;;;;;;;10.17;5.77;;;;;11.40;99946.00;;;;10530474;28;20211;-77
2021/10/30 20:30:26;;;;;;;11.27;6.63;;;;;11.40;99961.00;;;;10526248;28;20232;-77
2021/10/30 20:35:27;;;;;;;12.77;6.20;;;;;11.40;99963.00;;;;10505288;28;20740;-77
2021/10/30 20:40:30;;;;;;;11.83;6.10;;;;;11.40;99985.00;;;;10522321;28;20204;-77
2021/10/30 20:45:34;;;;;;;8.87;5.10;;;;;11.40;99984.00;;;;10522605;28;20224;-77
2021/10/30 20:50:36;;;;;;;8.40;5.13;;;;;11.40;99987.00;;;;10505849;28;20729;-78
2021/10/30 20:55:38;;;;;;;9.17;5.47;;;;;11.30;100002.00;;;;10505791;28;20196;-77
2021/10/30 21:00:43;;;;;;;11.33;5.63;;;;;11.30;99996.00;;;;10528466;28;20655;-78
2021/10/30 21:05:45;;;;;;;9.53;5.47;;;;;11.30;99989.00;;;;10546635;28;20268;-77
2021/10/30 21:10:47;;;;;;;8.37;5.67;;;;;11.30;100007.00;;;;10530524;28;20203;-77
2021/10/30 21:15:49;;;;;;;11.17;6.43;;;;;11.30;100021.00;;;;10564053;28;20183;-77
2021/10/30 21:20:51;;;;;;;8.40;4.97;;;;;11.30;100027.00;;;;10530396;28;20275;-77
2021/10/30 21:25:53;;;;;;;8.80;4.90;;;;;11.20;100037.00;;;;10564231;28;20204;-77
2021/10/30 21:30:55;;;;;;;12.13;5.60;;;;;11.10;100037.00;;;;10521030;28;20223;-77
2021/10/30 21:35:57;;;;;;;7.87;5.13;;;;;11.00;100043.00;;;;10505152;28;20666;-77
2021/10/30 21:41:00;;;;;;;9.73;5.67;;;;;11.00;100055.00;;;;10504749;28;20651;-78
2021/10/30 21:46:01;;;;;;;13.73;6.27;;;;;11.00;100058.00;;;;10506448;28;20247;-77
2021/10/30 21:51:04;;;;;;;11.13;6.30;;;;;10.90;100053.00;;;;10529263;28;20185;-77
2021/10/30 21:56:06;;;;;;;11.50;6.93;;;;;10.90;100073.00;;;;10538300;28;20188;-79
2021/10/30 22:01:10;;;;;;;12.40;6.47;;;;;10.90;100070.00;;;;10537400;28;20196;-79
2021/10/30 22:06:12;;;;;;;10.90;5.80;;;;;10.80;100075.00;;;;10570128;28;20220;-78
2021/10/30 22:11:15;;;;;;;10.67;7.03;;;;;10.80;100077.00;;;;10553007;28;20188;-78
2021/10/30 22:16:17;;;;;;;12.80;7.17;;;;;10.70;100082.00;;;;10552660;28;20237;-78
2021/10/30 22:21:19;;;;;;;12.67;6.90;;;;;10.70;100088.00;;;;10569191;28;20199;-78
2021/10/30 22:26:21;;;;;;;10.37;6.57;;;;;10.60;100086.00;;;;10519702;28;20548;-78
2021/10/30 22:31:23;;;;;;;13.43;8.33;;;;;10.60;100090.00;;;;10552425;28;20234;-79
2021/10/30 22:36:25;;;;;;;11.70;8.67;;;;;10.60;100097.00;;;;10535568;28;20188;-78
2021/10/30 22:41:27;;;;;;;12.13;8.67;;;;;10.60;100096.00;;;;10552024;28;20242;-79
2021/10/30 22:46:29;;;;;;;13.83;8.83;;;;;10.70;100092.00;;;;10551718;28;20277;-79
2021/10/30 22:51:32;;;;;;;13.27;9.47;;;;;10.60;100095.00;;;;10552115;28;20234;-78
2021/10/30 22:56:34;;;;;;;13.23;9.43;;;;;10.60;100111.00;;;;10517376;28;20189;-79
2021/10/30 23:01:36;;;;;;;15.33;10.00;;;;;10.70;100104.00;;;;10509169;28;20279;-79
2021/10/30 23:06:38;;;;;;;11.57;8.83;;;;;10.60;100114.00;;;;10552116;28;20223;-78
2021/10/30 23:11:42;;;;;;;14.00;8.33;;;;;10.60;100133.00;;;;10550786;28;20188;-78
2021/10/30 23:16:44;;;;;;;13.10;9.10;;;;;10.60;100128.00;;;;10534022;28;20180;-78
2021/10/30 23:21:46;;;;;;;14.43;8.30;;;;;10.60;100128.00;;;;10533352;28;20196;-78
2021/10/30 23:26:48;;;;;;;14.40;9.20;;;;;10.50;100118.00;;;;10549979;28;20217;-78
2021/10/30 23:31:49;;;;;;;11.87;8.73;;;;;10.50;100116.00;;;;10549971;28;20229;-78
2021/10/30 23:36:52;;;;;;;14.90;8.73;;;;;10.40;100122.00;;;;10516923;28;20214;-79
2021/10/30 23:41:53;;;;;;;15.80;10.10;;;;;10.40;100117.00;;;;10533018;28;20192;-78
2021/10/30 23:46:55;;;;;;;14.10;9.63;;;;;10.40;100126.00;;;;10549210;28;20216;-78
2021/10/30 23:51:59;;;;;;;13.43;9.43;;;;;10.40;100125.00;;;;10548965;28;20204;-78
2021/10/30 23:57:02;;;;;;;13.27;9.73;;;;;10.30;100121.00;;;;10532575;28;20184;-79
